Time;durP1;ratioP1;P1;durP2;ratioP2;P2;SDS_P1;SDS_P2;PMS_P1;PMS_P2;Temp;Humidity;BMP_temperature;BMP_pressure;BME280_temperature;BME280_humidity;BME280_pressure;Samples;Min_cycle;Max_cycle;Signal;HPM_P1;HPM_P2
2023/01/16 00:00:22;;;;;;;18.25;6.65;;;;;;;9.52;82.71;100927.31;5016185;28;20044;-94
2023/01/16 00:02:47;;;;;;;13.18;5.95;;;;;;;9.59;82.39;100931.28;5032993;28;20029;-91
2023/01/16 00:05:13;;;;;;;8.38;6.15;;;;;;;9.60;82.35;100923.09;5046652;28;20113;-92
2023/01/16 00:07:38;;;;;;;9.55;5.38;;;;;;;9.58;81.73;100934.91;5019467;28;20084;-91
2023/01/16 00:10:05;;;;;;;11.88;6.63;;;;;;;9.60;82.41;100936.50;5014549;28;20029;-92
2023/01/16 00:12:30;;;;;;;15.43;6.20;;;;;;;9.55;82.59;100930.63;5072917;28;20050;-91
2023/01/16 00:14:56;;;;;;;9.73;6.22;;;;;;;9.62;82.29;100934.59;5072173;28;20024;-93
2023/01/16 00:17:21;;;;;;;12.93;5.57;;;;;;;9.60;82.42;100931.13;5072536;28;20495;-92
2023/01/16 00:19:47;;;;;;;7.50;5.22;;;;;;;9.57;82.98;100934.06;5071538;28;20044;-93
2023/01/16 00:22:13;;;;;;;9.88;5.78;;;;;;;9.57;83.06;100923.31;5071869;28;20040;-93
2023/01/16 00:24:38;;;;;;;11.80;5.90;;;;;;;9.60;83.02;100912.34;5072227;28;20480;-91
2023/01/16 00:27:04;;;;;;;12.20;7.65;;;;;;;9.68;82.87;100915.34;5071998;28;20031;-93
2023/01/16 00:29:29;;;;;;;10.13;5.93;;;;;;;9.77;82.63;100909.31;5072861;28;20038;-92
2023/01/16 00:31:55;;;;;;;11.27;6.82;;;;;;;9.80;81.96;100917.13;5072234;28;20044;-92
2023/01/16 00:34:20;;;;;;;23.58;7.05;;;;;;;9.71;82.07;100907.06;5071364;28;20028;-90
2023/01/16 00:36:46;;;;;;;10.85;7.38;;;;;;;9.72;82.27;100905.25;5072070;28;20118;-91
2023/01/16 00:39:11;;;;;;;11.73;6.45;;;;;;;9.82;82.42;100907.13;5072004;28;20035;-91
2023/01/16 00:41:37;;;;;;;13.88;6.75;;;;;;;9.79;81.93;100893.91;5072265;28;20403;-91
2023/01/16 00:44:02;;;;;;;10.40;6.43;;;;;;;9.82;82.12;100895.50;5072940;28;20368;-92
2023/01/16 00:46:29;;;;;;;8.90;6.47;;;;;;;9.85;82.05;100896.16;5071905;28;20098;-92
2023/01/16 00:48:55;;;;;;;10.05;6.68;;;;;;;9.83;81.72;100892.72;5071808;28;20035;-93
2023/01/16 00:51:21;;;;;;;13.48;6.68;;;;;;;9.97;81.65;100891.69;5075569;28;20385;-90
2023/01/16 00:53:46;;;;;;;8.52;5.65;;;;;;;9.98;81.43;100884.50;5075625;28;20123;-92
2023/01/16 00:56:12;;;;;;;12.77;7.82;;;;;;;9.83;81.25;100875.75;5078844;28;20055;-92
2023/01/16 00:58:37;;;;;;;8.98;5.88;;;;;;;9.68;81.90;100869.69;5086848;28;20025;-91
2023/01/16 01:01:03;;;;;;;14.73;7.15;;;;;;;9.76;82.55;100891.47;5092867;28;20029;-90
2023/01/16 01:03:29;;;;;;;10.23;5.90;;;;;;;9.67;83.09;100888.59;5094949;28;20021;-92
2023/01/16 01:05:54;;;;;;;9.05;6.22;;;;;;;9.70;82.81;100862.38;5094748;28;20203;-91
2023/01/16 01:08:20;;;;;;;11.25;6.20;;;;;;;9.73;83.61;100875.56;5096663;28;20025;-91
2023/01/16 01:10:45;;;;;;;7.30;5.60;;;;;;;9.64;83.56;100852.09;5092683;28;20028;-91
2023/01/16 01:13:11;;;;;;;8.00;5.90;;;;;;;9.70;84.28;100865.06;5088169;28;20032;-92
2023/01/16 01:15:36;;;;;;;10.23;7.10;;;;;;;9.79;84.13;100861.69;5072589;28;20028;-92
2023/01/16 01:18:02;;;;;;;12.05;7.22;;;;;;;9.87;83.64;100868.31;5071555;28;20020;-90
2023/01/16 01:20:28;;;;;;;17.52;7.03;;;;;;;9.83;84.02;100855.13;5071114;28;20027;-93
2023/01/16 01:22:53;;;;;;;12.45;6.13;;;;;;;9.74;83.66;100853.13;5070962;28;20098;-91
2023/01/16 01:25:19;;;;;;;9.55;6.25;;;;;;;9.82;83.94;100853.41;5072858;28;20078;-92
2023/01/16 01:27:44;;;;;;;6.95;5.88;;;;;;;9.95;83.60;100853.34;5070358;28;20062;-91
2023/01/16 01:30:10;;;;;;;8.48;5.93;;;;;;;9.95;83.81;100842.59;5070119;28;20514;-90
2023/01/16 01:32:39;;;;;;;9.52;6.32;;;;;;;10.02;83.52;100854.59;5070079;28;20399;-92
2023/01/16 01:35:08;;;;;;;9.90;6.78;;;;;;;10.06;83.75;100845.31;5071282;28;20148;-92
2023/01/16 01:37:33;;;;;;;11.70;6.30;;;;;;;10.13;83.31;100845.72;5070366;28;20029;-92
2023/01/16 01:39:59;;;;;;;7.57;5.60;;;;;;;9.95;83.55;100833.66;5071460;28;20446;-93
2023/01/16 01:42:43;;;;;;;14.45;7.07;;;;;;;10.04;83.58;100830.28;5069901;28;20024;-91
2023/01/16 01:45:19;;;;;;;13.93;6.32;;;;;;;10.03;83.81;100828.59;5071953;28;20029;-92
2023/01/16 01:48:06;;;;;;;15.77;6.38;;;;;;;10.00;84.35;100829.66;5088919;28;20032;-89
2023/01/16 01:50:34;;;;;;;7.07;6.07;;;;;;;9.99;84.07;100833.34;5063175;28;20037;-91
2023/01/16 01:53:03;;;;;;;10.40;6.05;;;;;;;9.92;84.39;100828.53;5032983;28;20039;-92
2023/01/16 01:55:29;;;;;;;11.57;6.25;;;;;;;9.93;84.54;100824.88;5033035;28;20037;-92
2023/01/16 01:57:59;;;;;;;9.40;5.43;;;;;;;9.90;84.47;100827.81;5033503;28;20498;-91
2023/01/16 02:00:26;;;;;;;11.80;7.38;;;;;;;10.01;84.21;100831.38;5038300;28;20515;-90
2023/01/16 02:03:17;;;;;;;11.73;6.50;;;;;;;10.03;84.49;100839.34;5051608;28;20068;-91
2023/01/16 02:05:46;;;;;;;10.07;6.68;;;;;;;10.03;84.55;100833.97;5032157;28;20068;-91
2023/01/16 02:08:18;;;;;;;15.38;7.32;;;;;;;10.14;84.38;100836.72;5022985;28;20077;-91
2023/01/16 02:10:49;;;;;;;8.82;6.15;;;;;;;10.11;83.88;100828.84;5017268;28;20065;-89
2023/01/16 02:13:14;;;;;;;10.80;6.32;;;;;;;10.05;83.67;100826.63;5013740;28;20029;-92
2023/01/16 02:19:14;;;;;;;12.60;6.30;;;;;;;10.05;83.95;100821.25;5028883;28;20049;-91
2023/01/16 02:21:31;;;;;;;15.07;7.68;;;;;;;10.17;83.41;100831.97;5029937;28;20116;-91
2023/01/16 02:24:05;;;;;;;13.05;6.18;;;;;;;10.19;83.75;100813.03;5030800;28;20033;-92
2023/01/16 02:26:30;;;;;;;12.45;6.93;;;;;;;10.28;83.64;100825.75;5028679;28;20571;-91
2023/01/16 02:29:18;;;;;;;17.30;7.50;;;;;;;10.31;83.25;100833.59;5031832;28;20038;-90
2023/01/16 02:31:55;;;;;;;14.25;7.75;;;;;;;10.34;82.79;100827.97;5013939;28;20049;-91
2023/01/16 02:34:48;;;;;;;13.38;6.55;;;;;;;10.40;83.04;100832.03;4997793;28;20037;-91
2023/01/16 02:37:22;;;;;;;14.02;5.88;;;;;;;10.44;82.79;100831.66;4993679;28;20026;-92
2023/01/16 02:40:38;;;;;;;13.88;5.93;;;;;;;10.48;82.46;100838.53;4992560;28;20493;-91
2023/01/16 02:43:16;;;;;;;13.02;6.35;;;;;;;10.54;82.31;100835.38;4934748;29;20720;-90
2023/01/16 02:45:47;;;;;;;20.75;7.60;;;;;;;10.51;82.06;100835.59;4935067;29;20453;-90
2023/01/16 02:48:33;;;;;;;12.63;6.35;;;;;;;10.38;81.93;100818.69;4934394;29;20046;-91
2023/01/16 02:51:04;;;;;;;17.13;7.88;;;;;;;10.46;82.13;100834.25;4934506;29;20641;-91
2023/01/16 02:54:02;;;;;;;12.90;7.30;;;;;;;10.46;81.47;100826.19;4934162;29;20039;-90
2023/01/16 02:56:41;;;;;;;14.15;7.32;;;;;;;10.36;81.67;100828.72;4911853;29;20264;-92
2023/01/16 02:59:10;;;;;;;14.10;7.43;;;;;;;10.35;81.92;100822.50;4912652;29;20036;-91
2023/01/16 03:01:36;;;;;;;13.25;7.47;;;;;;;10.34;81.49;100806.47;4913043;29;20103;-92
2023/01/16 03:04:05;;;;;;;14.07;6.32;;;;;;;10.29;81.90;100811.34;4950864;29;20035;-88
2023/01/16 03:06:42;;;;;;;12.00;6.72;;;;;;;10.29;81.72;100782.66;4951057;29;20118;-89
2023/01/16 03:09:33;;;;;;;11.88;6.25;;;;;;;10.35;81.03;100797.44;4987927;28;20067;-93
2023/01/16 03:12:11;;;;;;;15.32;5.95;;;;;;;10.23;81.94;100806.44;4915325;29;20035;-91
2023/01/16 03:14:51;;;;;;;18.05;7.13;;;;;;;10.31;81.83;100798.63;4950060;28;20631;-91
2023/01/16 03:17:29;;;;;;;10.98;6.00;;;;;;;10.30;81.50;100788.88;4970385;28;20151;-91
2023/01/16 03:20:25;;;;;;;12.00;6.82;;;;;;;10.21;81.27;100785.03;4958192;28;20138;-92
2023/01/16 03:23:12;;;;;;;19.85;6.60;;;;;;;10.28;81.03;100788.13;4953736;28;20031;-92
2023/01/16 03:25:48;;;;;;;11.43;7.80;;;;;;;10.18;81.51;100787.97;4970383;28;20050;-92
2023/01/16 03:28:32;;;;;;;14.20;6.38;;;;;;;10.00;82.03;100780.47;4970140;28;20090;-92
2023/01/16 03:31:13;;;;;;;24.15;7.45;;;;;;;10.10;82.37;100792.19;4963682;28;20027;-91
2023/01/16 03:33:45;;;;;;;16.38;7.03;;;;;;;10.06;81.74;100780.81;5004754;28;20148;-90
2023/01/16 03:36:21;;;;;;;12.85;5.75;;;;;;;10.17;82.06;100782.72;5009106;28;20609;-91
2023/01/16 03:38:48;;;;;;;24.20;6.82;;;;;;;10.11;81.39;100775.09;5010285;28;20030;-91
2023/01/16 03:41:19;;;;;;;26.90;7.15;;;;;;;10.19;81.26;100796.91;4995770;28;20040;-92
2023/01/16 03:43:49;;;;;;;19.23;7.00;;;;;;;10.01;81.50;100774.97;4995520;28;20037;-93
2023/01/16 03:46:23;;;;;;;27.60;7.47;;;;;;;10.10;81.46;100787.69;4995999;28;20037;-91
2023/01/16 03:49:22;;;;;;;18.15;7.10;;;;;;;10.17;81.44;100794.34;5034592;28;20040;-92
2023/01/16 03:51:59;;;;;;;15.23;6.47;;;;;;;10.12;81.43;100780.34;5072867;28;20029;-94
2023/01/16 03:54:50;;;;;;;9.98;6.18;;;;;;;10.16;81.13;100781.88;5072092;28;20036;-91
2023/01/16 03:57:28;;;;;;;11.60;6.95;;;;;;;10.13;81.49;100787.47;5074353;28;20490;-92
2023/01/16 03:59:54;;;;;;;13.88;6.63;;;;;;;10.13;81.50;100782.09;5072564;28;20027;-90
2023/01/16 04:02:27;;;;;;;20.98;6.75;;;;;;;10.19;80.94;100787.00;5053119;28;20033;-94
2023/01/16 04:04:58;;;;;;;15.95;7.97;;;;;;;10.12;81.08;100790.28;5053323;28;20033;-90
2023/01/16 04:07:29;;;;;;;22.45;7.38;;;;;;;10.05;81.43;100786.34;5034260;28;20053;-91
2023/01/16 04:10:01;;;;;;;13.57;7.13;;;;;;;10.09;81.48;100791.34;5052602;28;20501;-92
2023/01/16 04:12:32;;;;;;;13.35;6.43;;;;;;;10.10;81.77;100790.38;5035683;28;20498;-91
2023/01/16 04:15:01;;;;;;;19.30;6.93;;;;;;;10.14;81.37;100788.34;5035979;28;20135;-89
2023/01/16 04:17:28;;;;;;;21.85;7.15;;;;;;;10.12;80.44;100761.53;5038538;28;20079;-90
2023/01/16 04:19:53;;;;;;;25.95;8.52;;;;;;;10.12;80.71;100764.22;5050751;28;20108;-93
2023/01/16 04:22:28;;;;;;;15.50;7.07;;;;;;;10.27;80.17;100786.44;5034066;28;20132;-92
2023/01/16 04:24:57;;;;;;;13.30;6.13;;;;;;;10.04;80.50;100763.13;5034805;28;20048;-91
2023/01/16 04:27:23;;;;;;;24.25;7.10;;;;;;;10.11;79.54;100761.66;5040043;28;20041;-91
2023/01/16 04:29:49;;;;;;;16.50;6.65;;;;;;;10.16;79.78;100776.50;5054099;28;20060;-91
2023/01/16 04:32:15;;;;;;;21.77;6.38;;;;;;;10.21;79.52;100784.22;5054126;28;20036;-92
2023/01/16 04:34:40;;;;;;;13.60;6.85;;;;;;;10.28;79.35;100774.69;5073666;28;20501;-91
2023/01/16 04:37:14;;;;;;;17.35;6.38;;;;;;;10.27;78.90;100779.19;5079081;28;20024;-91
2023/01/16 04:40:08;;;;;;;27.25;6.50;;;;;;;10.22;79.01;100772.47;5097695;28;20634;-92
2023/01/16 04:45:18;;;;;;;14.45;5.20;;;;;;;10.20;78.23;100764.53;5167797;22;20511;-83
2023/01/16 04:47:48;;;;;;;18.60;5.78;;;;;;;10.31;77.46;100758.31;5052274;28;20033;-84
2023/01/16 04:50:13;;;;;;;19.73;5.32;;;;;;;10.37;76.88;100768.59;5072251;28;20059;-84
2023/01/16 04:52:40;;;;;;;23.40;6.65;;;;;;;10.36;76.82;100750.75;5051466;28;20104;-84
2023/01/16 04:55:06;;;;;;;20.40;6.28;;;;;;;10.32;76.84;100735.84;5052474;28;20488;-91
2023/01/16 04:57:32;;;;;;;21.73;6.93;;;;;;;10.46;75.97;100750.91;5034441;28;20061;-90
2023/01/16 04:59:57;;;;;;;19.02;7.35;;;;;;;10.43;75.58;100746.59;5034412;28;20189;-92
2023/01/16 05:02:22;;;;;;;16.20;6.25;;;;;;;10.46;75.11;100756.28;5052407;28;20025;-83
2023/01/16 05:04:48;;;;;;;27.33;6.82;;;;;;;10.44;75.14;100748.31;5052299;28;20036;-83
2023/01/16 05:07:13;;;;;;;9.30;5.47;;;;;;;10.33;75.44;100759.06;5055027;28;20032;-85
2023/01/16 05:09:39;;;;;;;12.55;6.70;;;;;;;10.24;75.70;100747.19;5075649;28;20093;-89
2023/01/16 05:12:04;;;;;;;26.13;7.28;;;;;;;10.26;75.35;100741.69;5058602;28;20163;-90
2023/01/16 05:14:30;;;;;;;17.98;6.97;;;;;;;10.12;75.65;100725.78;5074388;28;20093;-84
2023/01/16 05:16:55;;;;;;;37.13;6.82;;;;;;;10.06;76.40;100743.19;5040770;28;20014;-92
2023/01/16 05:19:20;;;;;;;13.98;6.40;;;;;;;9.93;77.66;100733.53;5039374;28;20041;-89
2023/01/16 05:21:46;;;;;;;24.98;6.97;;;;;;;9.83;77.60;100715.44;5034126;28;20021;-91
2023/01/16 05:24:11;;;;;;;8.52;5.05;;;;;;;9.70;78.17;100720.03;5024298;28;20025;-90
2023/01/16 05:26:37;;;;;;;16.00;5.07;;;;;;;9.81;78.42;100733.47;5015854;28;20037;-87
2023/01/16 05:29:02;;;;;;;10.48;6.20;;;;;;;9.97;77.50;100743.91;5036040;28;20040;-88
2023/01/16 05:31:28;;;;;;;13.80;6.60;;;;;;;9.93;77.53;100736.22;5033884;28;20036;-87
2023/01/16 05:33:53;;;;;;;11.50;7.15;;;;;;;9.94;77.74;100732.56;5034023;28;20037;-84
2023/01/16 05:36:19;;;;;;;25.17;6.50;;;;;;;9.90;77.49;100709.59;5039239;28;20025;-89
2023/01/16 05:38:46;;;;;;;21.25;8.15;;;;;;;10.07;77.44;100725.25;5023303;28;20679;-90
2023/01/16 05:41:11;;;;;;;19.83;7.38;;;;;;;10.16;76.95;100719.19;5040705;28;20029;-88
2023/01/16 05:43:37;;;;;;;20.65;9.07;;;;;;;10.20;75.58;100708.09;5013718;28;20520;-89
2023/01/16 05:46:03;;;;;;;26.30;9.55;;;;;;;10.18;75.55;100699.28;5016341;28;20025;-91
2023/01/16 05:48:30;;;;;;;29.63;9.73;;;;;;;10.22;75.47;100695.38;5034456;28;20443;-85
2023/01/16 05:50:56;;;;;;;17.05;9.10;;;;;;;10.46;75.12;100710.56;5032246;28;20033;-87
2023/01/16 05:53:21;;;;;;;24.30;10.38;;;;;;;10.42;74.60;100695.66;5032402;28;20184;-87
2023/01/16 05:55:47;;;;;;;24.63;10.32;;;;;;;10.55;74.42;100707.97;5032236;28;20025;-91
2023/01/16 05:58:15;;;;;;;20.92;9.35;;;;;;;10.60;73.61;100705.78;5031116;28;20038;-88
2023/01/16 06:00:41;;;;;;;44.05;10.77;;;;;;;10.69;73.37;100707.75;5013022;28;20497;-91
2023/01/16 06:03:07;;;;;;;81.70;14.77;;;;;;;10.66;72.82;100699.91;5014701;28;20048;-88
2023/01/16 06:05:33;;;;;;;39.58;10.73;;;;;;;10.76;72.32;100717.00;5031576;28;20451;-86
2023/01/16 06:07:59;;;;;;;34.67;12.02;;;;;;;10.75;71.77;100701.00;5032061;28;20040;-87
2023/01/16 06:10:25;;;;;;;25.25;9.75;;;;;;;10.79;71.08;100711.38;5034118;28;20021;-85
2023/01/16 06:12:51;;;;;;;26.27;10.13;;;;;;;10.69;71.23;100688.91;5041218;28;20061;-87
2023/01/16 06:15:16;;;;;;;49.55;11.50;;;;;;;10.77;71.36;100702.59;5039659;28;20055;-88
2023/01/16 06:17:42;;;;;;;38.72;9.70;;;;;;;10.77;71.24;100709.78;5048787;28;20453;-88
2023/01/16 06:20:09;;;;;;;52.33;12.13;;;;;;;10.84;70.31;100719.94;5049220;28;20503;-86
2023/01/16 06:22:34;;;;;;;40.40;9.90;;;;;;;10.70;71.05;100717.50;5030602;28;20467;-88
2023/01/16 06:25:00;;;;;;;27.95;9.13;;;;;;;10.59;70.32;100717.50;5031152;28;20057;-86
2023/01/16 06:27:25;;;;;;;44.70;10.38;;;;;;;10.56;71.16;100708.84;5049113;28;20020;-86
2023/01/16 06:29:51;;;;;;;52.60;11.38;;;;;;;10.57;71.40;100703.34;5048519;28;20037;-87
2023/01/16 06:32:16;;;;;;;23.58;8.35;;;;;;;10.61;71.69;100717.41;5008086;28;20042;-88
2023/01/16 06:34:42;;;;;;;26.60;8.45;;;;;;;10.63;72.33;100724.38;5008172;28;20057;-86
2023/01/16 06:37:08;;;;;;;24.88;9.00;;;;;;;10.42;72.10;100699.19;5005993;28;20052;-86
2023/01/16 06:39:34;;;;;;;25.00;9.05;;;;;;;10.49;71.87;100721.09;5006906;28;20029;-86
2023/01/16 06:42:00;;;;;;;16.67;8.55;;;;;;;10.37;72.46;100717.50;5010563;28;20050;-87
2023/01/16 06:44:25;;;;;;;31.08;10.05;;;;;;;10.38;72.36;100719.22;5009935;28;20115;-86
2023/01/16 06:46:51;;;;;;;39.95;13.55;;;;;;;10.34;72.61;100721.28;5007753;28;20038;-87
2023/01/16 06:49:16;;;;;;;36.80;10.60;;;;;;;10.25;72.75;100726.53;5007173;28;20509;-86
2023/01/16 06:51:43;;;;;;;43.13;8.50;;;;;;;9.99;73.28;100708.88;5007899;28;20663;-87
2023/01/16 06:54:09;;;;;;;20.83;10.40;;;;;;;10.06;74.01;100728.94;5007224;28;20160;-87
2023/01/16 06:56:35;;;;;;;27.05;12.20;;;;;;;9.96;74.45;100723.41;4990885;28;20034;-87
2023/01/16 06:59:00;;;;;;;23.95;9.20;;;;;;;10.10;74.25;100720.50;5007507;28;20056;-88
2023/01/16 07:01:26;;;;;;;27.02;10.88;;;;;;;10.06;74.13;100700.22;5008062;28;20026;-87
2023/01/16 07:03:51;;;;;;;34.90;10.50;;;;;;;10.30;73.63;100714.44;5039308;28;20392;-87
2023/01/16 07:06:17;;;;;;;28.33;10.32;;;;;;;10.33;73.49;100702.63;5049216;28;20032;-87
2023/01/16 07:08:43;;;;;;;22.08;10.15;;;;;;;10.57;73.00;100716.78;5049082;28;20025;-86
2023/01/16 07:11:08;;;;;;;22.35;10.77;;;;;;;10.47;72.56;100694.28;5049670;28;20027;-86
2023/01/16 07:13:34;;;;;;;26.00;11.80;;;;;;;10.50;72.22;100710.19;5051229;28;20036;-85
2023/01/16 07:24:36;;;;;;;32.38;10.38;;;;;;;10.63;71.71;100681.34;4971239;28;20053;-86
2023/01/16 07:27:04;;;;;;;28.33;9.85;;;;;;;10.76;70.70;100684.72;4971540;28;20038;-86
2023/01/16 07:29:32;;;;;;;37.15;10.27;;;;;;;10.64;70.59;100674.13;4971204;28;20048;-87
2023/01/16 07:31:59;;;;;;;27.65;14.55;;;;;;;10.62;70.34;100676.94;4971286;28;20454;-87
2023/01/16 07:34:25;;;;;;;21.60;9.75;;;;;;;10.56;70.77;100682.81;4971055;28;20034;-87
2023/01/16 07:36:50;;;;;;;36.88;10.55;;;;;;;10.43;71.57;100682.06;4971052;28;20166;-87
2023/01/16 07:39:16;;;;;;;34.03;9.30;;;;;;;10.48;71.60;100682.56;4973133;28;20039;-87
2023/01/16 07:41:41;;;;;;;37.08;10.88;;;;;;;10.41;71.59;100657.16;4974395;28;20030;-85
2023/01/16 07:44:07;;;;;;;23.08;8.88;;;;;;;10.59;71.48;100661.03;4970556;28;20065;-87
2023/01/16 07:46:32;;;;;;;25.90;8.80;;;;;;;10.55;70.95;100651.50;4969773;28;20125;-87
2023/01/16 07:48:58;;;;;;;16.08;9.70;;;;;;;10.51;70.80;100660.81;4969564;28;20122;-86
2023/01/16 07:51:24;;;;;;;47.72;10.30;;;;;;;10.61;71.25;100653.69;4974152;28;20480;-84
2023/01/16 07:53:50;;;;;;;19.52;9.30;;;;;;;10.51;70.85;100652.75;4969563;28;20494;-86
2023/01/16 07:56:15;;;;;;;16.13;10.25;;;;;;;10.52;71.12;100635.63;5014709;28;20049;-88
2023/01/16 07:58:43;;;;;;;42.80;10.45;;;;;;;10.63;70.94;100646.38;5031274;28;20389;-87
2023/01/16 08:01:09;;;;;;;23.63;11.25;;;;;;;10.78;70.76;100637.06;5031278;28;20025;-86
2023/01/16 08:03:35;;;;;;;33.63;12.13;;;;;;;10.84;70.10;100639.25;5030727;28;20030;-87
2023/01/16 08:06:02;;;;;;;19.70;10.35;;;;;;;10.79;69.86;100641.44;5030960;28;20037;-88
2023/01/16 08:08:28;;;;;;;17.25;9.52;;;;;;;10.80;70.11;100647.66;5031260;28;20027;-87
2023/01/16 08:10:55;;;;;;;21.55;9.93;;;;;;;10.82;69.54;100641.19;5030737;28;20120;-86
2023/01/16 08:13:21;;;;;;;28.10;10.30;;;;;;;10.60;69.12;100632.31;5029163;28;20025;-87
2023/01/16 08:15:47;;;;;;;73.90;25.98;;;;;;;10.65;69.67;100622.03;5030942;28;20097;-87
2023/01/16 08:18:13;;;;;;;29.95;11.40;;;;;;;10.57;69.43;100635.25;5030571;28;20021;-87
2023/01/16 08:20:38;;;;;;;23.67;10.05;;;;;;;10.51;70.14;100641.13;5028884;28;20037;-87
2023/01/16 08:23:04;;;;;;;29.20;10.15;;;;;;;10.49;69.96;100625.09;5030511;28;20021;-86
2023/01/16 08:25:29;;;;;;;23.67;10.02;;;;;;;10.44;70.50;100608.50;5031181;28;20040;-87
2023/01/16 08:27:55;;;;;;;25.38;10.65;;;;;;;10.46;70.12;100606.53;5031450;28;20041;-88
2023/01/16 08:30:20;;;;;;;39.78;11.07;;;;;;;10.41;70.78;100599.81;5029254;28;20048;-86
2023/01/16 08:32:46;;;;;;;26.40;10.77;;;;;;;10.49;70.83;100618.91;5029282;28;20104;-88
2023/01/16 08:35:11;;;;;;;31.25;11.75;;;;;;;10.42;71.18;100601.53;5029126;28;20033;-88
2023/01/16 08:37:37;;;;;;;24.45;11.57;;;;;;;10.49;71.03;100627.78;5030273;28;20028;-85
2023/01/16 08:40:04;;;;;;;21.40;10.23;;;;;;;10.34;71.50;100613.75;5030328;28;20068;-87
2023/01/16 08:53:32;;;;;;;64.20;14.18;;;;;;;10.49;72.21;100624.28;5051254;28;20040;-87
2023/01/16 08:55:57;;;;;;;28.08;10.80;;;;;;;10.46;71.52;100622.66;5033194;28;20025;-87
2023/01/16 08:58:22;;;;;;;35.38;11.20;;;;;;;10.55;71.35;100618.41;5052747;28;20079;-87
2023/01/16 09:00:49;;;;;;;29.48;11.90;;;;;;;10.75;70.87;100623.84;5051973;28;20071;-87
2023/01/16 09:03:17;;;;;;;40.80;10.85;;;;;;;10.84;70.01;100630.31;5051267;28;20083;-86
2023/01/16 09:05:43;;;;;;;24.40;11.65;;;;;;;10.92;69.78;100620.63;5051296;28;20112;-88
2023/01/16 09:08:08;;;;;;;15.50;9.55;;;;;;;10.99;69.57;100598.56;5052750;28;20029;-86
2023/01/16 09:10:34;;;;;;;21.52;9.32;;;;;;;11.10;68.58;100610.16;5036279;28;20028;-87
2023/01/16 09:15:43;;;;;;;22.33;9.02;;;;;;;11.12;68.33;100583.13;5053155;28;20243;-86
2023/01/16 09:18:09;;;;;;;20.52;10.23;;;;;;;11.25;68.30;100583.78;5064110;28;20025;-87
2023/01/16 09:20:34;;;;;;;22.65;10.05;;;;;;;11.48;68.02;100580.84;5075382;28;20060;-89
2023/01/16 09:23:01;;;;;;;30.70;10.15;;;;;;;11.69;66.51;100588.91;5075196;28;20022;-88
2023/01/16 09:25:28;;;;;;;35.05;11.38;;;;;;;11.77;66.04;100581.03;5055803;28;20029;-87
2023/01/16 09:27:54;;;;;;;28.05;10.55;;;;;;;11.99;65.28;100572.78;5073369;28;20574;-86
2023/01/16 09:30:20;;;;;;;34.20;10.77;;;;;;;11.96;64.34;100538.00;5065086;28;20167;-86
2023/01/16 09:32:45;;;;;;;23.27;10.27;;;;;;;12.31;64.00;100558.28;5052236;28;20119;-86
2023/01/16 09:35:11;;;;;;;24.42;10.02;;;;;;;12.48;63.56;100550.38;5050897;28;20104;-87
2023/01/16 09:37:37;;;;;;;19.13;9.73;;;;;;;12.42;60.68;100536.59;5050672;28;20036;-88
2023/01/16 09:40:03;;;;;;;30.35;12.55;;;;;;;12.52;60.80;100551.81;5050461;28;20507;-86
2023/01/16 09:45:43;;;;;;;37.08;12.27;;;;;;;12.47;64.24;100521.72;5055472;28;20602;-85
2023/01/16 09:48:31;;;;;;;35.20;11.32;;;;;;;12.45;64.68;100533.59;5050209;28;20095;-86
2023/01/16 09:51:06;;;;;;;27.42;11.35;;;;;;;12.13;65.59;100530.28;5050408;28;20094;-87
2023/01/16 09:59:40;;;;;;;33.97;12.60;;;;;;;11.89;66.72;100482.97;5050312;28;20087;-87
2023/01/16 10:02:19;;;;;;;27.42;11.27;;;;;;;11.99;66.99;100516.19;5050029;28;20021;-87
2023/01/16 10:04:46;;;;;;;18.80;10.43;;;;;;;12.00;66.38;100504.41;5049684;28;20029;-88
2023/01/16 10:07:20;;;;;;;37.72;13.10;;;;;;;11.89;66.65;100491.06;5052611;28;20025;-88
2023/01/16 10:09:58;;;;;;;21.83;11.38;;;;;;;11.91;67.05;100497.16;5032302;28;20033;-86
2023/01/16 10:12:31;;;;;;;32.42;11.85;;;;;;;11.85;67.12;100492.31;5050347;28;20467;-88
2023/01/16 10:15:05;;;;;;;38.05;14.05;;;;;;;11.64;68.66;100488.78;5052079;28;20036;-88
2023/01/16 10:17:43;;;;;;;25.65;12.02;;;;;;;11.60;68.88;100495.41;5052961;28;20029;-87
2023/01/16 10:20:21;;;;;;;37.58;11.95;;;;;;;11.35;70.27;100487.75;5034443;28;20428;-87
2023/01/16 10:23:19;;;;;;;24.13;11.93;;;;;;;11.47;70.89;100476.78;5033288;28;20048;-86
2023/01/16 10:25:54;;;;;;;38.50;13.10;;;;;;;11.45;70.37;100473.38;5051435;28;20057;-89
2023/01/16 10:28:30;;;;;;;29.20;12.85;;;;;;;11.38;70.57;100479.41;5034595;28;20109;-86
2023/01/16 10:31:05;;;;;;;29.50;12.27;;;;;;;11.33;69.56;100460.13;5052330;28;20526;-86
2023/01/16 10:33:48;;;;;;;28.00;12.60;;;;;;;11.24;70.00;100463.63;5052595;28;20036;-86
2023/01/16 10:36:17;;;;;;;27.08;12.27;;;;;;;11.41;69.33;100460.31;5050773;28;20507;-87
2023/01/16 10:38:46;;;;;;;29.27;12.15;;;;;;;11.29;71.17;100450.59;5051966;28;20045;-87
2023/01/16 10:49:56;;;;;;;33.60;14.98;;;;;;;11.09;71.85;100432.66;5054425;28;20064;-87
2023/01/16 10:52:24;;;;;;;29.77;13.10;;;;;;;11.01;71.93;100424.41;5055348;28;20018;-87
2023/01/16 10:54:51;;;;;;;21.27;12.57;;;;;;;11.12;71.00;100432.38;5054394;28;20025;-87
2023/01/16 10:57:19;;;;;;;22.63;11.20;;;;;;;11.04;70.06;100408.00;5054248;28;20067;-86
2023/01/16 10:59:46;;;;;;;32.60;13.00;;;;;;;10.87;70.24;100406.75;5055275;28;20074;-86
2023/01/16 11:02:33;;;;;;;26.80;13.73;;;;;;;11.00;71.01;100420.00;5054882;28;20041;-88
2023/01/16 11:05:01;;;;;;;52.15;13.85;;;;;;;11.03;71.38;100412.50;5059066;28;20575;-86
2023/01/16 11:07:28;;;;;;;84.18;16.10;;;;;;;10.97;71.79;100422.94;5055377;28;20061;-87
2023/01/16 11:09:54;;;;;;;29.45;13.77;;;;;;;11.05;72.17;100410.53;5055625;28;20029;-88
2023/01/16 11:18:29;;;;;;;31.85;12.70;;;;;;;11.06;72.18;100374.56;5054518;28;20082;-86
2023/01/16 11:21:00;;;;;;;31.05;13.65;;;;;;;11.11;73.33;100382.22;5011842;28;20066;-87
2023/01/16 11:23:35;;;;;;;32.47;13.52;;;;;;;11.05;72.88;100364.78;4998608;28;20081;-87
2023/01/16 11:26:02;;;;;;;40.28;13.82;;;;;;;11.28;72.90;100387.81;5013019;28;20422;-87
2023/01/16 11:28:30;;;;;;;54.53;14.52;;;;;;;11.11;72.68;100379.53;5012691;28;20037;-87
2023/01/16 11:31:25;;;;;;;24.58;13.38;;;;;;;11.05;72.70;100388.16;5013232;28;20042;-85
2023/01/16 11:33:57;;;;;;;22.88;13.05;;;;;;;11.12;72.55;100389.31;5011089;28;20378;-86
2023/01/16 11:36:25;;;;;;;51.35;15.60;;;;;;;11.05;73.80;100364.78;5011005;28;20052;-87
2023/01/16 11:38:52;;;;;;;35.90;14.00;;;;;;;11.11;73.93;100366.06;5010898;28;20105;-85
2023/01/16 11:41:23;;;;;;;31.50;13.65;;;;;;;11.14;75.14;100365.81;5011702;28;20100;-89
2023/01/16 11:47:22;;;;;;;37.53;13.45;;;;;;;10.96;74.60;100359.34;5012466;28;20214;-86
2023/01/16 11:49:50;;;;;;;30.48;13.40;;;;;;;10.76;75.30;100359.22;5019150;28;20064;-84
2023/01/16 11:52:28;;;;;;;35.55;15.77;;;;;;;10.84;75.83;100348.69;5051156;28;20036;-84
2023/01/16 11:54:59;;;;;;;22.27;13.77;;;;;;;10.94;76.30;100378.34;5060730;28;20035;-85
2023/01/16 11:58:00;;;;;;;31.98;13.30;;;;;;;10.90;76.38;100372.34;5064872;28;20087;-85
2023/01/16 12:00:42;;;;;;;32.45;14.57;;;;;;;10.82;77.71;100365.94;5061225;28;20519;-84
2023/01/16 12:03:32;;;;;;;47.72;16.05;;;;;;;10.90;78.34;100349.97;5068014;28;20028;-85
2023/01/16 12:06:22;;;;;;;31.10;15.10;;;;;;;10.85;78.42;100338.78;5055669;28;20421;-87
2023/01/16 12:08:56;;;;;;;31.60;14.70;;;;;;;10.94;78.71;100337.97;5054942;28;20032;-86
2023/01/16 12:11:27;;;;;;;28.50;14.02;;;;;;;10.79;78.39;100323.16;5035654;28;20419;-86
2023/01/16 12:14:33;;;;;;;29.27;16.33;;;;;;;10.91;78.95;100339.09;5056096;28;20029;-85
2023/01/16 12:17:07;;;;;;;49.15;17.05;;;;;;;10.78;79.11;100313.38;4952430;29;20031;-89
2023/01/16 12:19:45;;;;;;;43.83;17.02;;;;;;;10.78;78.57;100322.31;4952707;29;20039;-85
2023/01/16 12:22:32;;;;;;;44.13;16.17;;;;;;;10.95;79.09;100328.06;4952300;29;20045;-86
2023/01/16 12:25:16;;;;;;;33.63;15.55;;;;;;;10.89;78.89;100324.06;4936155;29;20035;-86